createdAt,value
2019-01-15T00:00:01.766Z,100787.51
2019-01-15T00:01:03.914Z,100786.97
2019-01-15T00:02:06.097Z,100787.51
2019-01-15T00:03:08.122Z,100784.91
2019-01-15T00:04:10.119Z,100783.98
2019-01-15T00:05:12.114Z,100791.22
2019-01-15T00:06:14.074Z,100789.92
2019-01-15T00:07:16.001Z,100784.38
2019-01-15T00:08:18.453Z,100788.09
2019-01-15T00:09:20.686Z,100786.02
2019-01-15T00:10:22.642Z,100785.67
2019-01-15T00:11:24.626Z,100788.63
2019-01-15T00:12:26.646Z,100785.67
2019-01-15T00:13:28.598Z,100787.32
2019-01-15T00:14:30.650Z,100784.72
2019-01-15T00:15:33.322Z,100787.70
2019-01-15T00:16:35.853Z,100793.47
2019-01-15T00:17:39.219Z,100789.00
2019-01-15T00:18:41.682Z,100789.00
2019-01-15T00:19:44.750Z,100788.09
2019-01-15T00:20:47.395Z,100795.89
2019-01-15T00:21:50.201Z,100789.77
2019-01-15T00:22:52.860Z,100793.67
2019-01-15T00:24:00.970Z,100788.28
2019-01-15T00:25:04.456Z,100789.77
2019-01-15T00:26:07.607Z,100789.77
2019-01-15T00:27:10.833Z,100786.63
2019-01-15T00:28:16.217Z,100784.19
2019-01-15T00:29:18.632Z,100778.83
2019-01-15T00:30:21.068Z,100781.43
2019-01-15T00:31:23.232Z,100786.63
2019-01-15T00:32:25.678Z,100783.27
2019-01-15T00:33:28.218Z,100778.98
2019-01-15T00:34:30.634Z,100774.16
2019-01-15T00:35:32.986Z,100774.16
2019-01-15T00:36:35.136Z,100774.55
2019-01-15T00:37:37.082Z,100771.77
2019-01-15T00:38:39.034Z,100768.05
2019-01-15T00:39:41.050Z,100770.65
2019-01-15T00:40:43.026Z,100761.55
2019-01-15T00:41:44.956Z,100761.16
2019-01-15T00:42:46.920Z,100758.38
2019-01-15T00:43:48.976Z,100754.86
2019-01-15T00:44:50.907Z,100760.25
2019-01-15T00:45:52.912Z,100762.47
2019-01-15T00:46:55.508Z,100758.38
2019-01-15T00:47:57.461Z,100758.18
2019-01-15T00:48:59.432Z,100754.66
2019-01-15T00:50:01.472Z,100755.20
2019-01-15T00:51:03.530Z,100754.12
2019-01-15T00:52:05.478Z,100757.08
2019-01-15T00:53:07.435Z,100758.95
2019-01-15T00:54:09.392Z,100759.33
2019-01-15T00:55:11.434Z,100755.43
2019-01-15T00:56:13.424Z,100752.45
2019-01-15T00:57:15.382Z,100751.87
2019-01-15T00:58:17.330Z,100756.73
2019-01-15T00:59:19.353Z,100754.12
2019-01-15T01:00:21.386Z,100757.65
2019-01-15T01:01:25.913Z,100752.06
2019-01-15T01:02:27.872Z,100753.17
2019-01-15T01:03:29.876Z,100753.56
2019-01-15T01:04:31.814Z,100757.45
2019-01-15T01:05:33.781Z,100752.26
2019-01-15T01:06:35.767Z,100752.26
2019-01-15T01:07:37.732Z,100743.92
2019-01-15T01:08:39.686Z,100750.58
2019-01-15T01:09:41.632Z,100748.74
2019-01-15T01:10:43.723Z,100744.84
2019-01-15T01:11:45.691Z,100743.54
2019-01-15T01:12:47.667Z,100738.34
2019-01-15T01:13:50.459Z,100737.58
2019-01-15T01:14:52.513Z,100732.22
2019-01-15T01:15:54.453Z,100740.94
2019-01-15T01:16:56.431Z,100731.45
2019-01-15T01:17:58.377Z,100729.23
2019-01-15T01:19:00.360Z,100734.82
2019-01-15T01:20:02.316Z,100731.30
2019-01-15T01:21:04.258Z,100724.80
2019-01-15T01:22:06.318Z,100722.05
2019-01-15T01:23:08.287Z,100721.28
2019-01-15T01:24:10.301Z,100718.69
2019-01-15T01:25:12.228Z,100719.98
2019-01-15T01:26:14.181Z,100725.57
2019-01-15T01:27:16.235Z,100725.72
2019-01-15T01:28:18.196Z,100727.02
2019-01-15T01:29:20.208Z,100727.94
2019-01-15T01:30:22.141Z,100723.12
2019-01-15T01:31:24.111Z,100724.42
2019-01-15T01:32:26.157Z,100724.95
2019-01-15T01:33:30.268Z,100714.41
2019-01-15T01:34:32.211Z,100716.85
2019-01-15T01:35:34.148Z,100718.16
2019-01-15T01:36:36.085Z,100715.17
2019-01-15T01:37:38.084Z,100718.30
2019-01-15T01:38:40.085Z,100705.30
2019-01-15T01:39:42.549Z,100710.73
2019-01-15T01:40:44.494Z,100701.25
2019-01-15T01:41:46.431Z,100695.67
2019-01-15T01:42:48.381Z,100704.23
2019-01-15T01:43:50.325Z,100698.50
2019-01-15T01:44:52.277Z,100699.57
2019-01-15T01:45:54.239Z,100706.84
2019-01-15T01:46:56.182Z,100712.95
2019-01-15T01:47:58.145Z,100705.16
2019-01-15T01:49:00.102Z,100706.45
2019-01-15T01:50:04.381Z,100699.80
2019-01-15T01:51:06.393Z,100706.84
2019-01-15T01:52:08.342Z,100712.03
2019-01-15T01:53:10.307Z,100708.14
2019-01-15T01:54:12.255Z,100702.02
2019-01-15T01:55:14.226Z,100695.67
2019-01-15T01:56:16.286Z,100699.95
2019-01-15T01:57:20.556Z,100693.07
2019-01-15T01:58:22.523Z,100692.53
2019-01-15T01:59:24.475Z,100699.95
2019-01-15T02:00:26.419Z,100693.45
2019-01-15T02:01:28.367Z,100688.78
2019-01-15T02:02:30.308Z,100695.90
2019-01-15T02:03:32.281Z,100694.75
2019-01-15T02:04:34.231Z,100693.45
2019-01-15T02:05:36.195Z,100686.56
2019-01-15T02:06:42.363Z,100682.67
2019-01-15T02:07:41.821Z,100689.94
2019-01-15T02:08:43.885Z,100686.95
2019-01-15T02:09:45.845Z,100684.58
2019-01-15T02:10:47.803Z,100683.28
2019-01-15T02:11:49.751Z,100684.73
2019-01-15T02:12:51.701Z,100683.28
2019-01-15T02:13:53.675Z,100677.70
2019-01-15T02:14:56.835Z,100677.70
2019-01-15T02:15:58.845Z,100664.70
2019-01-15T02:17:00.795Z,100679.38
2019-01-15T02:18:04.729Z,100685.89
2019-01-15T02:19:06.727Z,100675.48
2019-01-15T02:20:08.673Z,100686.42
2019-01-15T02:21:10.701Z,100678.09
2019-01-15T02:22:12.655Z,100685.50
2019-01-15T02:23:14.590Z,100674.57
2019-01-15T02:24:16.851Z,100679.00
2019-01-15T02:25:18.807Z,100676.02
2019-01-15T02:26:20.759Z,100672.50
2019-01-15T02:27:23.087Z,100689.41
2019-01-15T02:28:25.025Z,100677.70
2019-01-15T02:29:27.017Z,100678.09
2019-01-15T02:30:29.008Z,100673.65
2019-01-15T02:31:31.038Z,100674.19
2019-01-15T02:32:32.991Z,100678.09
2019-01-15T02:33:35.021Z,100676.41
2019-01-15T02:34:36.973Z,100678.23
2019-01-15T02:35:38.942Z,100684.73
2019-01-15T02:36:40.883Z,100683.28
2019-01-15T02:37:42.825Z,100681.60
2019-01-15T02:38:44.754Z,100677.70
2019-01-15T02:39:46.753Z,100682.91
2019-01-15T02:40:48.705Z,100676.41
2019-01-15T02:41:50.662Z,100686.80
2019-01-15T02:42:52.615Z,100673.80
2019-01-15T02:43:55.628Z,100671.59
2019-01-15T02:44:57.665Z,100671.59
2019-01-15T02:45:59.620Z,100679.00
2019-01-15T02:47:01.633Z,100668.06
2019-01-15T02:48:03.855Z,100657.28
2019-01-15T02:49:05.805Z,100663.94
2019-01-15T02:50:07.849Z,100666.00
2019-01-15T02:51:09.869Z,100653.15
2019-01-15T02:52:11.892Z,100657.97
2019-01-15T02:53:13.831Z,100651.85
2019-01-15T02:54:15.778Z,100645.59
2019-01-15T02:55:17.750Z,100651.85
2019-01-15T02:56:21.543Z,100642.60
2019-01-15T02:57:23.506Z,100632.97
2019-01-15T02:58:25.723Z,100636.87
2019-01-15T02:59:27.676Z,100631.28
2019-01-15T03:00:29.683Z,100622.57
2019-01-15T03:01:31.685Z,100621.27
2019-01-15T03:02:35.989Z,100614.77
2019-01-15T03:03:37.942Z,100616.84
2019-01-15T03:04:40.203Z,100616.45
2019-01-15T03:05:42.156Z,100614.39
2019-01-15T03:06:44.098Z,100606.20
2019-01-15T03:07:46.041Z,100615.30
2019-01-15T03:08:48.003Z,100615.83
2019-01-15T03:09:49.983Z,100622.72
2019-01-15T03:10:51.993Z,100614.39
2019-01-15T03:11:56.424Z,100612.31
2019-01-15T03:12:58.459Z,100620.66
2019-01-15T03:14:00.495Z,100620.12
2019-01-15T03:15:02.452Z,100609.19
2019-01-15T03:16:04.427Z,100608.56
2019-01-15T03:17:09.786Z,100612.70
2019-01-15T03:18:11.798Z,100604.37
2019-01-15T03:19:13.732Z,100599.31
2019-01-15T03:20:15.695Z,100611.41
2019-01-15T03:21:17.664Z,100598.78
2019-01-15T03:22:19.638Z,100600.09
2019-01-15T03:23:21.570Z,100609.19
2019-01-15T03:24:23.516Z,100593.59
2019-01-15T03:25:25.482Z,100600.09
2019-01-15T03:26:27.450Z,100593.59
2019-01-15T03:27:29.409Z,100599.17
2019-01-15T03:28:31.352Z,100595.42
2019-01-15T03:29:33.313Z,100592.05
2019-01-15T03:30:35.307Z,100585.02
2019-01-15T03:31:37.298Z,100579.44
2019-01-15T03:32:39.263Z,100576.84
2019-01-15T03:33:41.234Z,100578.13
2019-01-15T03:34:43.184Z,100589.06
2019-01-15T03:35:45.258Z,100576.84
2019-01-15T03:36:47.219Z,100580.20
2019-01-15T03:37:49.177Z,100575.00
2019-01-15T03:38:51.124Z,100559.41
2019-01-15T03:39:53.081Z,100557.72
2019-01-15T03:40:55.095Z,100553.29
2019-01-15T03:41:57.079Z,100565.38
2019-01-15T03:43:03.962Z,100547.17
2019-01-15T03:44:05.830Z,100559.41
2019-01-15T03:45:07.868Z,100549.39
2019-01-15T03:46:09.876Z,100545.11
2019-01-15T03:47:11.956Z,100546.79
2019-01-15T03:48:13.894Z,100546.41
2019-01-15T03:49:15.831Z,100542.50
2019-01-15T03:50:17.850Z,100538.08
2019-01-15T03:51:19.798Z,100532.48
2019-01-15T03:52:21.788Z,100538.61
2019-01-15T03:53:23.800Z,100532.10
2019-01-15T03:54:25.749Z,100529.89
2019-01-15T03:55:27.683Z,100522.09
2019-01-15T03:56:29.632Z,100532.10
2019-01-15T03:57:31.654Z,100529.89
2019-01-15T03:58:33.609Z,100547.70
2019-01-15T03:59:35.661Z,100534.70
2019-01-15T04:00:37.631Z,100542.13
2019-01-15T04:01:39.600Z,100546.41
2019-01-15T04:02:41.728Z,100547.70
2019-01-15T04:03:43.740Z,100545.25
2019-01-15T04:04:46.144Z,100536.53
2019-01-15T04:05:48.134Z,100539.28
2019-01-15T04:06:50.112Z,100543.95
2019-01-15T04:07:56.334Z,100547.85
2019-01-15T04:08:58.289Z,100537.84
2019-01-15T04:10:00.794Z,100543.56
2019-01-15T04:11:02.751Z,100542.65
2019-01-15T04:12:04.723Z,100547.47
2019-01-15T04:13:11.242Z,100545.64
2019-01-15T04:14:10.378Z,100540.05
2019-01-15T04:15:12.392Z,100543.03
2019-01-15T04:16:14.355Z,100539.52
2019-01-15T04:17:16.384Z,100540.05
2019-01-15T04:18:18.342Z,100534.70
2019-01-15T04:19:20.288Z,100531.34
2019-01-15T04:20:22.228Z,100533.41
2019-01-15T04:21:24.257Z,100525.98
2019-01-15T04:22:26.193Z,100520.55
2019-01-15T04:23:28.168Z,100525.37
2019-01-15T04:24:30.118Z,100522.23
2019-01-15T04:25:32.128Z,100515.73
2019-01-15T04:26:34.336Z,100521.70
2019-01-15T04:27:36.302Z,100524.83
2019-01-15T04:28:38.255Z,100519.11
2019-01-15T04:29:40.204Z,100528.73
2019-01-15T04:30:42.154Z,100536.69
2019-01-15T04:31:44.159Z,100525.37
2019-01-15T04:32:46.112Z,100530.56
2019-01-15T04:33:48.043Z,100529.50
2019-01-15T04:34:50.039Z,100532.25
2019-01-15T04:35:52.039Z,100533.17
2019-01-15T04:36:54.081Z,100524.45
2019-01-15T04:37:56.100Z,100530.80
2019-01-15T04:38:58.081Z,100528.88
2019-01-15T04:40:00.208Z,100532.25
2019-01-15T04:41:02.236Z,100541.88
2019-01-15T04:42:04.218Z,100533.17
2019-01-15T04:43:06.165Z,100533.55
2019-01-15T04:44:08.182Z,100537.45
2019-01-15T04:45:10.132Z,100537.45
2019-01-15T04:46:12.134Z,100533.94
2019-01-15T04:47:15.550Z,100530.03
2019-01-15T04:48:17.533Z,100530.03
2019-01-15T04:49:19.493Z,100533.55
2019-01-15T04:50:21.512Z,100526.14
2019-01-15T04:51:23.457Z,100526.91
2019-01-15T04:52:25.704Z,100538.37
2019-01-15T04:53:27.709Z,100532.25
2019-01-15T04:54:29.648Z,100534.47
2019-01-15T04:55:31.595Z,100540.05
2019-01-15T04:56:34.195Z,100532.25
2019-01-15T04:57:36.245Z,100535.37
2019-01-15T04:58:41.402Z,100534.08
2019-01-15T04:59:43.715Z,100531.48
2019-01-15T05:00:47.325Z,100535.00
2019-01-15T05:01:49.293Z,100529.80
2019-01-15T05:02:51.544Z,100538.52
2019-01-15T05:03:53.915Z,100537.22
2019-01-15T05:04:55.967Z,100536.30
2019-01-15T05:05:57.903Z,100534.08
2019-01-15T05:07:00.909Z,100534.47
2019-01-15T05:08:02.920Z,100532.02
2019-01-15T05:09:04.904Z,100531.09
2019-01-15T05:10:06.858Z,100530.71
2019-01-15T05:11:08.919Z,100523.30
2019-01-15T05:12:10.871Z,100522.38
2019-01-15T05:13:12.917Z,100522.00
2019-01-15T05:14:14.859Z,100520.31
2019-01-15T05:15:16.810Z,100514.20
2019-01-15T05:16:18.763Z,100507.70
2019-01-15T05:17:20.733Z,100512.89
2019-01-15T05:18:22.779Z,100503.80
2019-01-15T05:19:26.087Z,100508.08
2019-01-15T05:20:28.035Z,100509.38
2019-01-15T05:21:30.065Z,100506.78
2019-01-15T05:22:32.079Z,100503.80
2019-01-15T05:23:34.047Z,100499.90
2019-01-15T05:24:35.987Z,100505.09
2019-01-15T05:25:39.105Z,100499.90
2019-01-15T05:26:41.060Z,100494.31
2019-01-15T05:27:43.018Z,100501.34
2019-01-15T05:28:45.065Z,100500.81
2019-01-15T05:29:48.043Z,100496.91
2019-01-15T05:30:50.061Z,100493.16
2019-01-15T05:31:52.086Z,100495.41
2019-01-15T05:32:54.117Z,100494.45
2019-01-15T05:33:56.169Z,100496.14
2019-01-15T05:34:58.116Z,100492.81
2019-01-15T05:36:00.059Z,100491.33
2019-01-15T05:37:02.093Z,100491.13
2019-01-15T05:38:06.160Z,100497.23
2019-01-15T05:39:08.134Z,100489.44
2019-01-15T05:40:10.078Z,100493.87
2019-01-15T05:41:12.032Z,100491.27
2019-01-15T05:42:13.976Z,100484.03
2019-01-15T05:43:15.998Z,100488.47
2019-01-15T05:44:18.056Z,100490.30
2019-01-15T05:45:28.323Z,100486.78
2019-01-15T05:46:30.345Z,100487.84
2019-01-15T05:47:32.459Z,100490.83
2019-01-15T05:48:36.423Z,100491.59
2019-01-15T05:49:38.551Z,100490.83
2019-01-15T05:50:59.614Z,100493.04
2019-01-15T05:52:01.589Z,100483.94
2019-01-15T05:53:03.556Z,100490.44
2019-01-15T05:54:05.575Z,100489.28
2019-01-15T05:55:07.520Z,100486.69
2019-01-15T05:56:09.693Z,100486.83
2019-01-15T05:57:13.844Z,100482.16
2019-01-15T05:58:15.865Z,100488.42
2019-01-15T05:59:17.810Z,100483.98
2019-01-15T06:00:19.783Z,100486.97
2019-01-15T06:01:21.748Z,100487.89
2019-01-15T06:02:23.770Z,100489.33
2019-01-15T06:03:25.728Z,100492.70
2019-01-15T06:04:27.751Z,100489.33
2019-01-15T06:05:30.284Z,100492.08
2019-01-15T06:06:32.222Z,100490.63
2019-01-15T06:07:34.196Z,100490.63
2019-01-15T06:08:36.164Z,100485.05
2019-01-15T06:09:38.194Z,100492.84
2019-01-15T06:10:40.249Z,100482.06
2019-01-15T06:11:42.186Z,100488.56
2019-01-15T06:12:44.136Z,100484.13
2019-01-15T06:13:46.086Z,100487.12
2019-01-15T06:14:48.654Z,100491.94
2019-01-15T06:15:50.636Z,100486.59
2019-01-15T06:16:52.582Z,100490.63
2019-01-15T06:17:54.530Z,100486.59
2019-01-15T06:18:56.572Z,100481.77
2019-01-15T06:20:00.474Z,100492.17
2019-01-15T06:21:02.225Z,100490.48
2019-01-15T06:22:04.169Z,100496.84
2019-01-15T06:23:06.111Z,100494.63
2019-01-15T06:24:08.052Z,100491.11
2019-01-15T06:25:10.000Z,100492.66
2019-01-15T06:26:11.966Z,100492.66
2019-01-15T06:27:13.983Z,100490.97
2019-01-15T06:28:15.936Z,100491.36
2019-01-15T06:29:18.191Z,100492.66
2019-01-15T06:30:20.130Z,100499.02
2019-01-15T06:31:22.165Z,100491.36
2019-01-15T06:32:24.116Z,100491.21
2019-01-15T06:33:26.128Z,100494.73
2019-01-15T06:34:28.066Z,100492.89
2019-01-15T06:35:30.019Z,100490.15
2019-01-15T06:36:32.003Z,100493.28
2019-01-15T06:37:33.942Z,100491.98
2019-01-15T06:38:39.135Z,100486.64
2019-01-15T06:39:41.175Z,100488.84
2019-01-15T06:40:43.185Z,100486.98
2019-01-15T06:41:45.275Z,100491.13
2019-01-15T06:42:47.238Z,100489.23
2019-01-15T06:43:50.132Z,100495.94
2019-01-15T06:44:52.291Z,100496.86
2019-01-15T06:45:54.234Z,100501.52
2019-01-15T06:46:56.391Z,100506.34
2019-01-15T06:47:58.330Z,100504.86
2019-01-15T06:49:00.285Z,100505.63
2019-01-15T06:50:02.223Z,100500.05
2019-01-15T06:51:04.199Z,100503.03
2019-01-15T06:52:06.175Z,100506.40
2019-01-15T06:53:08.112Z,100503.80
2019-01-15T06:54:10.093Z,100506.78
2019-01-15T06:55:12.071Z,100497.68
2019-01-15T06:56:14.046Z,100499.37
2019-01-15T06:57:19.438Z,100510.69
2019-01-15T06:58:21.396Z,100503.50
2019-01-15T06:59:23.345Z,100505.58
2019-01-15T07:00:26.574Z,100499.08
2019-01-15T07:01:28.528Z,100508.17
2019-01-15T07:02:33.266Z,100498.16
2019-01-15T07:03:35.208Z,100499.84
2019-01-15T07:04:43.653Z,100501.53
2019-01-15T07:05:43.237Z,100505.43
2019-01-15T07:06:44.483Z,100510.63
2019-01-15T07:07:46.441Z,100506.73
2019-01-15T07:08:48.395Z,100511.40
2019-01-15T07:09:50.444Z,100510.45
2019-01-15T07:10:52.392Z,100507.50
2019-01-15T07:11:54.320Z,100506.93
2019-01-15T07:12:56.309Z,100506.55
2019-01-15T07:13:58.260Z,100512.13
2019-01-15T07:15:00.263Z,100504.72
2019-01-15T07:16:02.514Z,100508.61
2019-01-15T07:17:04.462Z,100508.47
2019-01-15T07:18:06.454Z,100511.07
2019-01-15T07:19:08.485Z,100506.02
2019-01-15T07:20:10.425Z,100512.52
2019-01-15T07:21:12.449Z,100506.25
2019-01-15T07:22:14.428Z,100511.45
2019-01-15T07:23:16.498Z,100505.88
2019-01-15T07:24:18.522Z,100515.35
2019-01-15T07:25:20.492Z,100509.77
2019-01-15T07:26:22.435Z,100504.04
2019-01-15T07:27:26.033Z,100507.17
2019-01-15T07:28:27.985Z,100506.78
2019-01-15T07:29:34.361Z,100507.55
2019-01-15T07:30:36.357Z,100510.16
2019-01-15T07:31:38.314Z,100501.82
2019-01-15T07:32:40.334Z,100499.61
2019-01-15T07:33:43.770Z,100505.72
2019-01-15T07:34:45.733Z,100504.42
2019-01-15T07:35:50.900Z,100497.01
2019-01-15T07:36:52.871Z,100499.75
2019-01-15T07:37:54.800Z,100501.20
2019-01-15T07:38:56.757Z,100500.05
2019-01-15T07:39:58.711Z,100498.55
2019-01-15T07:41:00.667Z,100496.23
2019-01-15T07:42:02.620Z,100500.28
2019-01-15T07:43:04.553Z,100491.33
2019-01-15T07:44:06.534Z,100484.77
2019-01-15T07:45:08.483Z,100485.09
2019-01-15T07:46:10.427Z,100487.59
2019-01-15T07:47:12.659Z,100479.17
2019-01-15T07:48:14.745Z,100482.59
2019-01-15T07:49:16.755Z,100477.72
2019-01-15T07:50:18.723Z,100479.30
2019-01-15T07:51:20.654Z,100484.65
2019-01-15T07:52:22.593Z,100477.37
2019-01-15T07:53:25.019Z,100478.67
2019-01-15T07:54:27.519Z,100481.27
2019-01-15T07:55:29.483Z,100477.13
2019-01-15T07:56:31.505Z,100480.12
2019-01-15T07:57:33.461Z,100483.25
2019-01-15T07:58:38.700Z,100489.99
2019-01-15T07:59:43.791Z,100482.19
2019-01-15T08:00:45.782Z,100484.94
2019-01-15T08:01:47.799Z,100479.20
2019-01-15T08:02:49.757Z,100485.32
2019-01-15T08:03:51.708Z,100492.73
2019-01-15T08:04:53.766Z,100486.09
2019-01-15T08:05:55.783Z,100490.91
2019-01-15T08:06:57.801Z,100485.95
2019-01-15T08:07:59.819Z,100488.55
2019-01-15T08:09:01.781Z,100488.55
2019-01-15T08:10:03.835Z,100483.44
2019-01-15T08:11:05.786Z,100486.43
2019-01-15T08:12:07.773Z,100488.50
2019-01-15T08:13:09.761Z,100489.27
2019-01-15T08:14:12.389Z,100484.07
2019-01-15T08:15:14.528Z,100487.44
2019-01-15T08:16:16.491Z,100490.05
2019-01-15T08:17:18.459Z,100487.65
2019-01-15T08:18:20.399Z,100493.23
2019-01-15T08:19:22.609Z,100493.09
2019-01-15T08:20:24.626Z,100497.38
2019-01-15T08:21:26.567Z,100495.55
2019-01-15T08:22:28.521Z,100495.93
2019-01-15T08:23:30.539Z,100497.09
2019-01-15T08:24:32.497Z,100494.87
2019-01-15T08:25:34.479Z,100490.44
2019-01-15T08:26:36.495Z,100496.02
2019-01-15T08:27:39.105Z,100496.41
2019-01-15T08:28:41.295Z,100494.20
2019-01-15T08:29:43.259Z,100492.36
2019-01-15T08:30:45.368Z,100486.64
2019-01-15T08:31:49.745Z,100493.87
2019-01-15T08:32:51.704Z,100487.37
2019-01-15T08:33:53.641Z,100492.04
2019-01-15T08:34:55.597Z,100477.94
2019-01-15T08:35:57.641Z,100487.95
2019-01-15T08:36:59.579Z,100492.24
2019-01-15T08:38:01.518Z,100491.33
2019-01-15T08:39:05.608Z,100487.28
2019-01-15T08:40:07.348Z,100491.19
2019-01-15T08:41:09.330Z,100492.34
2019-01-15T08:42:11.349Z,100486.61
2019-01-15T08:43:13.368Z,100485.30
2019-01-15T08:44:19.161Z,100496.48
2019-01-15T08:45:19.051Z,100489.98
2019-01-15T08:46:21.028Z,100493.34
2019-01-15T08:47:23.147Z,100490.22
2019-01-15T08:48:27.390Z,100497.63
2019-01-15T08:49:29.332Z,100489.30
2019-01-15T08:50:31.271Z,100491.90
2019-01-15T08:51:33.330Z,100485.22
2019-01-15T08:52:35.256Z,100483.92
2019-01-15T08:53:37.495Z,100482.23
2019-01-15T08:54:39.462Z,100485.98
2019-01-15T08:55:44.918Z,100478.57
2019-01-15T08:56:46.973Z,100472.98
2019-01-15T08:57:48.932Z,100475.73
2019-01-15T08:58:50.888Z,100460.70
2019-01-15T08:59:52.844Z,100474.37
2019-01-15T09:00:54.780Z,100469.08
2019-01-15T09:02:00.152Z,100472.36
2019-01-15T09:03:02.244Z,100470.08
2019-01-15T09:04:04.190Z,100466.12
2019-01-15T09:05:06.193Z,100473.97
2019-01-15T09:06:08.131Z,100473.14
2019-01-15T09:07:10.110Z,100470.44
2019-01-15T09:08:12.068Z,100472.94
2019-01-15T09:09:14.087Z,100462.68
2019-01-15T09:10:16.149Z,100459.84
2019-01-15T09:11:18.167Z,100465.56
2019-01-15T09:12:20.160Z,100460.69
2019-01-15T09:13:22.144Z,100465.26
2019-01-15T09:14:27.041Z,100462.42
2019-01-15T09:15:27.780Z,100470.75
2019-01-15T09:16:29.799Z,100467.37
2019-01-15T09:17:31.798Z,100466.22
2019-01-15T09:18:33.750Z,100461.02
2019-01-15T09:19:35.777Z,100461.02
2019-01-15T09:20:37.826Z,100446.56
2019-01-15T09:21:39.856Z,100447.72
2019-01-15T09:22:41.949Z,100450.18
2019-01-15T09:23:44.115Z,100439.63
2019-01-15T09:24:46.141Z,100442.09
2019-01-15T09:25:48.238Z,100430.39
2019-01-15T09:26:50.242Z,100427.25
2019-01-15T09:27:52.219Z,100426.34
2019-01-15T09:28:54.267Z,100424.13
2019-01-15T09:29:56.201Z,100426.16
2019-01-15T09:30:58.152Z,100422.64
2019-01-15T09:32:03.408Z,100421.59
2019-01-15T09:33:05.372Z,100423.13
2019-01-15T09:34:07.435Z,100420.92
2019-01-15T09:35:09.515Z,100416.34
2019-01-15T09:36:11.496Z,100420.11
2019-01-15T09:37:14.018Z,100418.81
2019-01-15T09:38:16.069Z,100412.55
2019-01-15T09:39:17.997Z,100409.03
2019-01-15T09:40:19.938Z,100403.66
2019-01-15T09:41:21.879Z,100403.90
2019-01-15T09:42:24.095Z,100406.88
2019-01-15T09:43:26.126Z,100401.55
2019-01-15T09:44:33.960Z,100401.55
2019-01-15T09:45:31.765Z,100400.09
2019-01-15T09:46:33.709Z,100399.95
2019-01-15T09:47:37.295Z,100394.61
2019-01-15T09:48:39.487Z,100401.50
2019-01-15T09:49:41.439Z,100393.55
2019-01-15T09:50:43.389Z,100393.37
2019-01-15T09:51:45.343Z,100389.48
2019-01-15T09:52:47.375Z,100396.36
2019-01-15T09:53:49.345Z,100384.91
2019-01-15T09:54:51.300Z,100383.04
2019-01-15T09:55:53.225Z,100385.50
2019-01-15T09:56:55.378Z,100388.48
2019-01-15T09:57:57.381Z,100388.48
2019-01-15T09:58:59.369Z,100384.44
2019-01-15T10:00:01.339Z,100385.22
2019-01-15T10:01:03.318Z,100385.22
2019-01-15T10:02:05.271Z,100378.19
2019-01-15T10:03:07.208Z,100377.27
2019-01-15T10:04:09.189Z,100379.73
2019-01-15T10:05:11.130Z,100374.34
2019-01-15T10:06:13.330Z,100380.46
2019-01-15T10:07:15.357Z,100383.45
2019-01-15T10:08:17.297Z,100375.12
2019-01-15T10:09:19.369Z,100379.02
2019-01-15T10:10:21.391Z,100369.78
2019-01-15T10:11:23.340Z,100373.67
2019-01-15T10:12:25.281Z,100367.95
2019-01-15T10:13:27.222Z,100359.63
2019-01-15T10:14:29.278Z,100365.35
2019-01-15T10:15:31.297Z,100354.42
2019-01-15T10:16:33.269Z,100347.30
2019-01-15T10:17:35.294Z,100347.83
2019-01-15T10:18:37.226Z,100348.35
2019-01-15T10:19:39.190Z,100346.98
2019-01-15T10:20:41.128Z,100349.48
2019-01-15T10:21:43.452Z,100349.03
2019-01-15T10:22:45.386Z,100344.92
2019-01-15T10:23:47.331Z,100345.34
2019-01-15T10:24:49.697Z,100342.50
2019-01-15T10:25:51.921Z,100335.89
2019-01-15T10:26:55.349Z,100337.66
2019-01-15T10:27:58.393Z,100323.10
2019-01-15T10:29:00.363Z,100330.66
2019-01-15T10:30:03.391Z,100333.02
2019-01-15T10:31:05.419Z,100324.58
2019-01-15T10:32:09.790Z,100327.49
2019-01-15T10:33:11.733Z,100316.70
2019-01-15T10:34:13.676Z,100312.16
2019-01-15T10:35:15.634Z,100317.37
2019-01-15T10:36:17.565Z,100318.03
2019-01-15T10:37:19.522Z,100319.86
2019-01-15T10:38:21.449Z,100323.91
2019-01-15T10:39:23.494Z,100317.39
2019-01-15T10:40:25.496Z,100310.50
2019-01-15T10:41:27.438Z,100315.32
2019-01-15T10:42:29.631Z,100314.02
2019-01-15T10:43:31.555Z,100311.95
2019-01-15T10:44:33.494Z,100314.41
2019-01-15T10:45:35.471Z,100313.49
2019-01-15T10:46:37.419Z,100312.05
2019-01-15T10:47:39.381Z,100321.94
2019-01-15T10:48:41.448Z,100307.48
2019-01-15T10:49:43.433Z,100312.02
2019-01-15T10:50:45.410Z,100317.23
2019-01-15T10:51:47.360Z,100304.86
2019-01-15T10:52:49.319Z,100304.08
2019-01-15T10:53:51.336Z,100306.16
2019-01-15T10:54:53.737Z,100315.09
2019-01-15T10:55:55.747Z,100307.28
2019-01-15T10:56:57.690Z,100300.25
2019-01-15T10:57:59.628Z,100304.93
2019-01-15T10:59:01.651Z,100299.97
2019-01-15T11:00:03.585Z,100305.42
2019-01-15T11:01:05.559Z,100291.51
2019-01-15T11:02:07.578Z,100307.88
2019-01-15T11:03:09.606Z,100305.67
2019-01-15T11:04:11.605Z,100301.10
2019-01-15T11:05:13.541Z,100301.84
2019-01-15T11:06:15.521Z,100306.52
2019-01-15T11:07:17.451Z,100302.23
2019-01-15T11:08:19.395Z,100312.11
2019-01-15T11:09:21.346Z,100301.70
2019-01-15T11:10:23.386Z,100299.73
2019-01-15T11:11:25.446Z,100294.15
2019-01-15T11:12:29.735Z,100284.91
2019-01-15T11:13:31.675Z,100281.39
2019-01-15T11:14:33.786Z,100286.45
2019-01-15T11:15:39.472Z,100282.94
2019-01-15T11:16:39.780Z,100293.73
2019-01-15T11:17:41.802Z,100285.93
2019-01-15T11:18:43.739Z,100287.61
2019-01-15T11:19:45.691Z,100280.45
2019-01-15T11:20:47.641Z,100277.45
2019-01-15T11:21:49.755Z,100278.23
2019-01-15T11:22:51.697Z,100276.02
2019-01-15T11:23:53.637Z,100275.84
2019-01-15T11:24:55.593Z,100271.42
2019-01-15T11:25:59.256Z,100264.36
2019-01-15T11:27:01.294Z,100258.24
2019-01-15T11:28:03.226Z,100254.34
2019-01-15T11:29:05.176Z,100252.12
2019-01-15T11:30:07.202Z,100258.88
2019-01-15T11:31:09.163Z,100258.10
2019-01-15T11:32:11.141Z,100249.25
2019-01-15T11:33:13.088Z,100247.81
2019-01-15T11:34:15.030Z,100245.21
2019-01-15T11:35:16.974Z,100256.52
2019-01-15T11:36:20.502Z,100259.52
2019-01-15T11:37:22.452Z,100254.70
2019-01-15T11:38:24.400Z,100248.05
2019-01-15T11:39:26.335Z,100250.66
2019-01-15T11:40:28.322Z,100241.95
2019-01-15T11:41:30.340Z,100251.43
2019-01-15T11:42:32.458Z,100243.25
2019-01-15T11:43:34.400Z,100239.56
2019-01-15T11:44:36.819Z,100223.58
2019-01-15T11:45:38.758Z,100240.86
2019-01-15T11:46:40.694Z,100225.78
2019-01-15T11:47:42.668Z,100226.17
2019-01-15T11:48:44.622Z,100228.17
2019-01-15T11:49:46.582Z,100224.80